TimeEST,TemperatureF,Dew PointF,Humidity,Sea Level PressureIn,VisibilityMPH,Wind Direction,Wind SpeedMPH,Gust SpeedMPH,PrecipitationIn,Events,Conditions,WindDirDegrees,DateUTC
12:53 AM,55.9,53.1,90,30.09,10.0,NW,4.6,-,N/A,,Overcast,320,2012-11-20 05:53:00
1:53 AM,57.0,53.1,87,30.08,10.0,NNW,6.9,-,N/A,,Overcast,330,2012-11-20 06:53:00
2:53 AM,57.0,53.1,87,30.06,10.0,NW,6.9,-,N/A,,Overcast,320,2012-11-20 07:53:00
3:53 AM,57.0,53.1,87,30.06,10.0,WNW,8.1,-,N/A,,Overcast,300,2012-11-20 08:53:00
4:53 AM,55.0,53.1,93,30.06,10.0,NW,5.8,-,N/A,,Scattered Clouds,320,2012-11-20 09:53:00
5:53 AM,54.0,52.0,93,30.07,9.0,NW,4.6,-,N/A,,Clear,320,2012-11-20 10:53:00
6:53 AM,55.0,53.1,93,30.09,9.0,NNW,5.8,-,N/A,,Clear,330,2012-11-20 11:53:00
7:53 AM,57.0,54.0,89,30.10,10.0,NNW,11.5,-,N/A,,Clear,340,2012-11-20 12:53:00
8:53 AM,60.1,54.0,80,30.10,10.0,NNW,11.5,-,N/A,,Clear,340,2012-11-20 13:53:00
9:53 AM,64.9,55.0,70,30.10,10.0,North,11.5,-,N/A,,Clear,10,2012-11-20 14:53:00
10:53 AM,69.1,55.0,61,30.09,10.0,North,10.4,-,N/A,,Clear,350,2012-11-20 15:53:00
11:53 AM,72.0,55.0,55,30.07,10.0,NNW,10.4,-,N/A,,Clear,340,2012-11-20 16:53:00
12:53 PM,73.0,55.0,53,30.04,10.0,North,10.4,-,N/A,,Partly Cloudy,350,2012-11-20 17:53:00
1:53 PM,73.9,55.0,52,30.01,10.0,North,12.7,24.2,N/A,,Clear,10,2012-11-20 18:53:00
2:53 PM,75.0,55.0,50,30.00,10.0,North,8.1,17.3,N/A,,Clear,360,2012-11-20 19:53:00
3:53 PM,73.0,54.0,51,30.01,10.0,North,11.5,-,N/A,,Clear,10,2012-11-20 20:53:00
4:53 PM,70.0,54.0,57,30.00,10.0,NNE,11.5,-,N/A,,Clear,30,2012-11-20 21:53:00
5:53 PM,66.0,54.0,65,30.01,10.0,North,6.9,-,N/A,,Clear,10,2012-11-20 22:53:00
6:53 PM,63.0,54.0,72,30.03,10.0,NNE,5.8,-,N/A,,Clear,30,2012-11-20 23:53:00
7:53 PM,61.0,55.0,81,30.05,10.0,North,3.5,-,N/A,,Clear,10,2012-11-21 00:53:00
8:53 PM,60.1,54.0,80,30.06,10.0,North,4.6,-,N/A,,Clear,10,2012-11-21 01:53:00
9:53 PM,59.0,54.0,83,30.06,10.0,North,4.6,-,N/A,,Clear,10,2012-11-21 02:53:00
10:53 PM,57.0,54.0,89,30.06,10.0,North,5.8,-,N/A,,Clear,360,2012-11-21 03:53:00
11:53 PM,55.9,52.0,87,30.05,10.0,North,4.6,-,N/A,,Clear,10,2012-11-21 04:53:00